METAR LSZS 191850Z AUTO 04005KT 9999 -SN BKN040 M05/M09 Q1021=